sensor_id;sensor_type;location;lat;lon;timestamp;P1;durP1;ratioP1;P2;durP2;ratioP2
26756;SDS011;23848;49.798;10.228;2023-11-21T00:01:32;2.17;;;1.10;;
26756;SDS011;23848;49.798;10.228;2023-11-21T00:04:01;1.58;;;1.13;;
26756;SDS011;23848;49.798;10.228;2023-11-21T00:06:36;2.95;;;0.90;;
26756;SDS011;23848;49.798;10.228;2023-11-21T00:09:05;2.03;;;1.10;;
26756;SDS011;23848;49.798;10.228;2023-11-21T00:11:34;2.03;;;1.00;;
26756;SDS011;23848;49.798;10.228;2023-11-21T00:14:05;1.90;;;0.90;;
26756;SDS011;23848;49.798;10.228;2023-11-21T00:16:34;2.03;;;1.08;;
26756;SDS011;23848;49.798;10.228;2023-11-21T00:19:03;3.47;;;1.15;;
26756;SDS011;23848;49.798;10.228;2023-11-21T00:21:31;2.33;;;1.20;;
26756;SDS011;23848;49.798;10.228;2023-11-21T00:24:02;2.13;;;1.00;;
26756;SDS011;23848;49.798;10.228;2023-11-21T00:26:30;1.95;;;0.90;;
26756;SDS011;23848;49.798;10.228;2023-11-21T00:29:03;1.58;;;0.70;;
26756;SDS011;23848;49.798;10.228;2023-11-21T00:31:35;2.83;;;1.10;;
26756;SDS011;23848;49.798;10.228;2023-11-21T00:34:05;2.60;;;1.00;;
26756;SDS011;23848;49.798;10.228;2023-11-21T00:36:33;3.47;;;1.20;;
26756;SDS011;23848;49.798;10.228;2023-11-21T00:39:02;1.92;;;0.80;;
26756;SDS011;23848;49.798;10.228;2023-11-21T00:41:32;2.10;;;0.88;;
26756;SDS011;23848;49.798;10.228;2023-11-21T00:44:01;3.17;;;1.23;;
26756;SDS011;23848;49.798;10.228;2023-11-21T00:46:30;1.80;;;0.90;;
26756;SDS011;23848;49.798;10.228;2023-11-21T00:49:00;2.38;;;1.08;;
26756;SDS011;23848;49.798;10.228;2023-11-21T00:51:30;1.63;;;0.90;;
26756;SDS011;23848;49.798;10.228;2023-11-21T00:53:59;2.78;;;1.20;;
26756;SDS011;23848;49.798;10.228;2023-11-21T00:56:27;2.55;;;1.35;;
26756;SDS011;23848;49.798;10.228;2023-11-21T00:58:56;3.13;;;1.30;;
26756;SDS011;23848;49.798;10.228;2023-11-21T01:01:24;2.60;;;1.40;;
26756;SDS011;23848;49.798;10.228;2023-11-21T01:03:52;3.15;;;1.50;;
26756;SDS011;23848;49.798;10.228;2023-11-21T01:06:22;2.72;;;1.30;;
26756;SDS011;23848;49.798;10.228;2023-11-21T01:08:50;2.47;;;1.38;;
26756;SDS011;23848;49.798;10.228;2023-11-21T01:11:19;2.63;;;1.30;;
26756;SDS011;23848;49.798;10.228;2023-11-21T01:13:47;2.60;;;1.50;;
26756;SDS011;23848;49.798;10.228;2023-11-21T01:16:15;2.40;;;1.27;;
26756;SDS011;23848;49.798;10.228;2023-11-21T01:18:44;3.17;;;1.50;;
26756;SDS011;23848;49.798;10.228;2023-11-21T01:21:12;2.38;;;1.15;;
26756;SDS011;23848;49.798;10.228;2023-11-21T01:23:42;3.33;;;1.30;;
26756;SDS011;23848;49.798;10.228;2023-11-21T01:26:13;2.60;;;1.30;;
26756;SDS011;23848;49.798;10.228;2023-11-21T01:28:42;2.70;;;1.42;;
26756;SDS011;23848;49.798;10.228;2023-11-21T01:31:16;2.58;;;1.38;;
26756;SDS011;23848;49.798;10.228;2023-11-21T01:33:55;2.20;;;1.23;;
26756;SDS011;23848;49.798;10.228;2023-11-21T01:36:29;2.80;;;1.48;;
26756;SDS011;23848;49.798;10.228;2023-11-21T01:39:03;2.28;;;1.20;;
26756;SDS011;23848;49.798;10.228;2023-11-21T01:41:35;3.28;;;1.38;;
26756;SDS011;23848;49.798;10.228;2023-11-21T01:44:03;2.20;;;1.30;;
26756;SDS011;23848;49.798;10.228;2023-11-21T01:46:34;2.65;;;1.30;;
26756;SDS011;23848;49.798;10.228;2023-11-21T01:49:04;2.45;;;1.40;;
26756;SDS011;23848;49.798;10.228;2023-11-21T01:51:32;3.10;;;1.42;;
26756;SDS011;23848;49.798;10.228;2023-11-21T01:54:02;3.28;;;1.38;;
26756;SDS011;23848;49.798;10.228;2023-11-21T01:56:42;2.70;;;1.55;;
26756;SDS011;23848;49.798;10.228;2023-11-21T01:59:11;3.00;;;1.40;;
26756;SDS011;23848;49.798;10.228;2023-11-21T02:01:40;2.85;;;1.20;;
26756;SDS011;23848;49.798;10.228;2023-11-21T02:04:08;2.53;;;1.20;;
26756;SDS011;23848;49.798;10.228;2023-11-21T02:06:37;2.20;;;1.20;;
26756;SDS011;23848;49.798;10.228;2023-11-21T02:09:07;2.78;;;1.38;;
26756;SDS011;23848;49.798;10.228;2023-11-21T02:11:36;3.05;;;1.27;;
26756;SDS011;23848;49.798;10.228;2023-11-21T02:14:05;2.95;;;1.13;;
26756;SDS011;23848;49.798;10.228;2023-11-21T02:16:35;3.08;;;1.42;;
26756;SDS011;23848;49.798;10.228;2023-11-21T02:19:07;2.80;;;1.50;;
26756;SDS011;23848;49.798;10.228;2023-11-21T02:21:36;2.72;;;1.30;;
26756;SDS011;23848;49.798;10.228;2023-11-21T02:24:08;2.20;;;1.20;;
26756;SDS011;23848;49.798;10.228;2023-11-21T02:26:37;1.83;;;1.00;;
26756;SDS011;23848;49.798;10.228;2023-11-21T02:29:05;2.05;;;1.08;;
26756;SDS011;23848;49.798;10.228;2023-11-21T02:31:37;2.10;;;1.10;;
26756;SDS011;23848;49.798;10.228;2023-11-21T02:34:14;2.03;;;0.85;;
26756;SDS011;23848;49.798;10.228;2023-11-21T02:36:44;1.73;;;0.82;;
26756;SDS011;23848;49.798;10.228;2023-11-21T02:39:15;2.08;;;0.80;;
26756;SDS011;23848;49.798;10.228;2023-11-21T02:41:44;1.55;;;1.00;;
26756;SDS011;23848;49.798;10.228;2023-11-21T02:44:12;3.17;;;1.10;;
26756;SDS011;23848;49.798;10.228;2023-11-21T02:46:41;3.05;;;0.90;;
26756;SDS011;23848;49.798;10.228;2023-11-21T02:49:10;1.73;;;1.02;;
26756;SDS011;23848;49.798;10.228;2023-11-21T02:51:38;2.47;;;0.90;;
26756;SDS011;23848;49.798;10.228;2023-11-21T02:54:11;1.58;;;0.82;;
26756;SDS011;23848;49.798;10.228;2023-11-21T02:56:42;1.88;;;0.85;;
26756;SDS011;23848;49.798;10.228;2023-11-21T02:59:10;2.45;;;1.08;;
26756;SDS011;23848;49.798;10.228;2023-11-21T03:01:38;2.00;;;0.80;;
26756;SDS011;23848;49.798;10.228;2023-11-21T03:04:07;1.80;;;0.75;;
26756;SDS011;23848;49.798;10.228;2023-11-21T03:06:35;1.80;;;0.77;;
26756;SDS011;23848;49.798;10.228;2023-11-21T03:09:04;1.13;;;0.70;;
26756;SDS011;23848;49.798;10.228;2023-11-21T03:11:33;1.48;;;0.80;;
26756;SDS011;23848;49.798;10.228;2023-11-21T03:14:02;2.00;;;0.90;;
26756;SDS011;23848;49.798;10.228;2023-11-21T03:16:31;2.28;;;0.90;;
26756;SDS011;23848;49.798;10.228;2023-11-21T03:19:00;2.30;;;0.80;;
26756;SDS011;23848;49.798;10.228;2023-11-21T03:21:28;1.88;;;0.82;;
26756;SDS011;23848;49.798;10.228;2023-11-21T03:23:57;1.02;;;0.60;;
26756;SDS011;23848;49.798;10.228;2023-11-21T03:26:26;2.33;;;0.70;;
26756;SDS011;23848;49.798;10.228;2023-11-21T03:28:54;1.30;;;0.75;;
26756;SDS011;23848;49.798;10.228;2023-11-21T03:31:24;1.92;;;0.88;;
26756;SDS011;23848;49.798;10.228;2023-11-21T03:33:53;2.65;;;0.80;;
26756;SDS011;23848;49.798;10.228;2023-11-21T03:36:21;2.13;;;0.82;;
26756;SDS011;23848;49.798;10.228;2023-11-21T03:38:51;2.05;;;0.88;;
26756;SDS011;23848;49.798;10.228;2023-11-21T03:41:19;2.40;;;0.70;;
26756;SDS011;23848;49.798;10.228;2023-11-21T03:43:48;3.35;;;0.93;;
26756;SDS011;23848;49.798;10.228;2023-11-21T03:46:16;1.98;;;0.80;;
26756;SDS011;23848;49.798;10.228;2023-11-21T03:48:46;2.13;;;0.80;;
26756;SDS011;23848;49.798;10.228;2023-11-21T03:51:14;1.90;;;0.88;;
26756;SDS011;23848;49.798;10.228;2023-11-21T03:53:43;1.77;;;0.93;;
26756;SDS011;23848;49.798;10.228;2023-11-21T03:56:11;1.30;;;0.60;;
26756;SDS011;23848;49.798;10.228;2023-11-21T03:58:39;2.03;;;0.75;;
26756;SDS011;23848;49.798;10.228;2023-11-21T04:01:08;1.58;;;0.80;;
26756;SDS011;23848;49.798;10.228;2023-11-21T04:03:36;2.38;;;1.08;;
26756;SDS011;23848;49.798;10.228;2023-11-21T04:06:08;2.55;;;0.98;;
26756;SDS011;23848;49.798;10.228;2023-11-21T04:08:37;1.92;;;1.00;;
26756;SDS011;23848;49.798;10.228;2023-11-21T04:11:05;1.92;;;0.90;;
26756;SDS011;23848;49.798;10.228;2023-11-21T04:13:34;2.45;;;1.00;;
26756;SDS011;23848;49.798;10.228;2023-11-21T04:16:02;1.85;;;0.70;;
26756;SDS011;23848;49.798;10.228;2023-11-21T04:18:31;1.90;;;0.85;;
26756;SDS011;23848;49.798;10.228;2023-11-21T04:20:59;2.25;;;0.88;;
26756;SDS011;23848;49.798;10.228;2023-11-21T04:23:29;2.78;;;1.10;;
26756;SDS011;23848;49.798;10.228;2023-11-21T04:25:58;2.67;;;1.15;;
26756;SDS011;23848;49.798;10.228;2023-11-21T04:28:28;2.40;;;0.90;;
26756;SDS011;23848;49.798;10.228;2023-11-21T04:30:57;1.73;;;0.88;;
26756;SDS011;23848;49.798;10.228;2023-11-21T04:33:25;2.10;;;0.82;;
26756;SDS011;23848;49.798;10.228;2023-11-21T04:35:54;2.33;;;1.08;;
26756;SDS011;23848;49.798;10.228;2023-11-21T04:38:22;1.75;;;0.90;;
26756;SDS011;23848;49.798;10.228;2023-11-21T04:40:52;1.65;;;0.75;;
26756;SDS011;23848;49.798;10.228;2023-11-21T04:43:20;2.80;;;1.00;;
26756;SDS011;23848;49.798;10.228;2023-11-21T04:45:49;2.55;;;0.75;;
26756;SDS011;23848;49.798;10.228;2023-11-21T04:48:18;2.72;;;1.10;;
26756;SDS011;23848;49.798;10.228;2023-11-21T04:50:46;1.50;;;0.90;;
26756;SDS011;23848;49.798;10.228;2023-11-21T04:53:14;1.70;;;0.80;;
26756;SDS011;23848;49.798;10.228;2023-11-21T04:55:43;1.25;;;0.65;;
26756;SDS011;23848;49.798;10.228;2023-11-21T04:58:13;1.85;;;0.90;;
26756;SDS011;23848;49.798;10.228;2023-11-21T05:00:42;1.35;;;0.65;;
26756;SDS011;23848;49.798;10.228;2023-11-21T05:03:10;2.03;;;0.93;;
26756;SDS011;23848;49.798;10.228;2023-11-21T05:05:39;2.72;;;0.82;;
26756;SDS011;23848;49.798;10.228;2023-11-21T05:08:08;1.33;;;0.60;;
26756;SDS011;23848;49.798;10.228;2023-11-21T05:10:37;1.80;;;0.98;;
26756;SDS011;23848;49.798;10.228;2023-11-21T05:13:06;1.90;;;0.90;;
26756;SDS011;23848;49.798;10.228;2023-11-21T05:15:51;2.25;;;0.88;;
26756;SDS011;23848;49.798;10.228;2023-11-21T05:18:19;1.90;;;1.05;;
26756;SDS011;23848;49.798;10.228;2023-11-21T05:20:48;3.05;;;1.33;;
26756;SDS011;23848;49.798;10.228;2023-11-21T05:23:17;3.15;;;1.60;;
26756;SDS011;23848;49.798;10.228;2023-11-21T05:25:46;3.55;;;1.90;;
26756;SDS011;23848;49.798;10.228;2023-11-21T05:28:14;4.40;;;2.85;;
26756;SDS011;23848;49.798;10.228;2023-11-21T05:30:48;4.88;;;3.42;;
26756;SDS011;23848;49.798;10.228;2023-11-21T05:33:29;5.75;;;3.13;;
26756;SDS011;23848;49.798;10.228;2023-11-21T05:35:59;3.90;;;2.30;;
26756;SDS011;23848;49.798;10.228;2023-11-21T05:38:27;3.08;;;1.40;;
26756;SDS011;23848;49.798;10.228;2023-11-21T05:40:56;2.67;;;1.55;;
26756;SDS011;23848;49.798;10.228;2023-11-21T05:43:24;2.25;;;1.27;;
26756;SDS011;23848;49.798;10.228;2023-11-21T05:45:55;3.55;;;1.77;;
26756;SDS011;23848;49.798;10.228;2023-11-21T05:48:23;2.75;;;1.67;;
26756;SDS011;23848;49.798;10.228;2023-11-21T05:50:52;3.47;;;1.67;;
26756;SDS011;23848;49.798;10.228;2023-11-21T05:53:20;2.75;;;1.50;;
26756;SDS011;23848;49.798;10.228;2023-11-21T05:55:48;3.20;;;1.52;;
26756;SDS011;23848;49.798;10.228;2023-11-21T05:58:16;3.63;;;1.60;;
26756;SDS011;23848;49.798;10.228;2023-11-21T06:00:55;2.58;;;1.40;;
26756;SDS011;23848;49.798;10.228;2023-11-21T06:03:24;2.63;;;1.38;;
26756;SDS011;23848;49.798;10.228;2023-11-21T06:05:52;2.83;;;1.50;;
26756;SDS011;23848;49.798;10.228;2023-11-21T06:08:21;4.05;;;1.52;;
26756;SDS011;23848;49.798;10.228;2023-11-21T06:10:49;3.35;;;1.75;;
26756;SDS011;23848;49.798;10.228;2023-11-21T06:13:20;2.47;;;1.30;;
26756;SDS011;23848;49.798;10.228;2023-11-21T06:16:01;3.65;;;1.30;;
26756;SDS011;23848;49.798;10.228;2023-11-21T06:18:42;3.92;;;1.40;;
26756;SDS011;23848;49.798;10.228;2023-11-21T06:21:11;2.83;;;1.35;;
26756;SDS011;23848;49.798;10.228;2023-11-21T06:26:16;3.33;;;1.25;;
26756;SDS011;23848;49.798;10.228;2023-11-21T06:28:45;2.70;;;1.48;;
26756;SDS011;23848;49.798;10.228;2023-11-21T06:31:15;3.88;;;1.63;;
26756;SDS011;23848;49.798;10.228;2023-11-21T06:33:48;2.78;;;1.30;;
26756;SDS011;23848;49.798;10.228;2023-11-21T06:36:19;6.80;;;1.60;;
26756;SDS011;23848;49.798;10.228;2023-11-21T06:38:51;2.33;;;1.20;;
26756;SDS011;23848;49.798;10.228;2023-11-21T06:41:20;4.55;;;2.47;;
26756;SDS011;23848;49.798;10.228;2023-11-21T06:43:56;4.65;;;2.00;;
26756;SDS011;23848;49.798;10.228;2023-11-21T06:46:34;2.92;;;1.73;;
26756;SDS011;23848;49.798;10.228;2023-11-21T06:49:09;5.03;;;2.58;;
26756;SDS011;23848;49.798;10.228;2023-11-21T06:52:03;7.18;;;2.63;;
26756;SDS011;23848;49.798;10.228;2023-11-21T06:54:37;3.53;;;2.53;;
26756;SDS011;23848;49.798;10.228;2023-11-21T06:57:25;4.57;;;3.20;;
26756;SDS011;23848;49.798;10.228;2023-11-21T06:59:58;6.43;;;2.67;;
26756;SDS011;23848;49.798;10.228;2023-11-21T07:02:31;5.22;;;3.45;;
26756;SDS011;23848;49.798;10.228;2023-11-21T07:05:06;7.35;;;4.93;;
26756;SDS011;23848;49.798;10.228;2023-11-21T07:07:50;9.38;;;5.70;;
26756;SDS011;23848;49.798;10.228;2023-11-21T07:10:26;7.20;;;3.90;;
26756;SDS011;23848;49.798;10.228;2023-11-21T07:12:58;7.43;;;5.13;;
26756;SDS011;23848;49.798;10.228;2023-11-21T07:15:27;6.07;;;3.88;;
26756;SDS011;23848;49.798;10.228;2023-11-21T07:17:59;6.35;;;3.60;;
26756;SDS011;23848;49.798;10.228;2023-11-21T07:20:30;8.45;;;4.25;;
26756;SDS011;23848;49.798;10.228;2023-11-21T07:22:58;5.38;;;3.85;;
26756;SDS011;23848;49.798;10.228;2023-11-21T07:25:27;5.97;;;3.65;;
26756;SDS011;23848;49.798;10.228;2023-11-21T07:27:56;6.07;;;3.65;;
26756;SDS011;23848;49.798;10.228;2023-11-21T07:30:25;5.95;;;3.72;;
26756;SDS011;23848;49.798;10.228;2023-11-21T07:32:54;5.85;;;3.67;;
26756;SDS011;23848;49.798;10.228;2023-11-21T07:35:26;6.47;;;3.72;;
26756;SDS011;23848;49.798;10.228;2023-11-21T07:37:56;6.70;;;3.78;;
26756;SDS011;23848;49.798;10.228;2023-11-21T07:40:29;6.22;;;4.15;;
26756;SDS011;23848;49.798;10.228;2023-11-21T07:42:58;7.38;;;4.35;;
26756;SDS011;23848;49.798;10.228;2023-11-21T07:45:28;7.47;;;4.45;;
26756;SDS011;23848;49.798;10.228;2023-11-21T07:47:56;8.13;;;5.57;;
26756;SDS011;23848;49.798;10.228;2023-11-21T07:50:28;11.32;;;6.63;;
26756;SDS011;23848;49.798;10.228;2023-11-21T07:52:57;8.20;;;5.43;;
26756;SDS011;23848;49.798;10.228;2023-11-21T07:55:26;11.23;;;7.30;;
26756;SDS011;23848;49.798;10.228;2023-11-21T07:57:58;10.40;;;6.93;;
26756;SDS011;23848;49.798;10.228;2023-11-21T08:00:27;9.82;;;6.53;;
26756;SDS011;23848;49.798;10.228;2023-11-21T08:02:57;10.02;;;7.10;;
26756;SDS011;23848;49.798;10.228;2023-11-21T08:05:30;6.60;;;4.47;;
26756;SDS011;23848;49.798;10.228;2023-11-21T08:08:03;8.77;;;5.03;;
26756;SDS011;23848;49.798;10.228;2023-11-21T08:10:37;10.93;;;5.85;;
26756;SDS011;23848;49.798;10.228;2023-11-21T08:13:15;9.57;;;4.30;;
26756;SDS011;23848;49.798;10.228;2023-11-21T08:15:45;9.60;;;6.30;;
26756;SDS011;23848;49.798;10.228;2023-11-21T08:18:19;17.45;;;11.60;;
26756;SDS011;23848;49.798;10.228;2023-11-21T08:20:54;15.68;;;11.18;;
26756;SDS011;23848;49.798;10.228;2023-11-21T08:23:27;7.28;;;5.30;;
26756;SDS011;23848;49.798;10.228;2023-11-21T08:26:02;8.73;;;5.72;;
26756;SDS011;23848;49.798;10.228;2023-11-21T08:28:38;5.40;;;3.08;;
26756;SDS011;23848;49.798;10.228;2023-11-21T08:31:14;8.40;;;4.60;;
26756;SDS011;23848;49.798;10.228;2023-11-21T08:33:45;8.80;;;7.32;;
26756;SDS011;23848;49.798;10.228;2023-11-21T08:36:17;9.90;;;6.65;;
26756;SDS011;23848;49.798;10.228;2023-11-21T08:38:54;7.65;;;5.18;;
26756;SDS011;23848;49.798;10.228;2023-11-21T08:41:38;6.35;;;4.07;;
26756;SDS011;23848;49.798;10.228;2023-11-21T08:44:12;4.85;;;3.38;;
26756;SDS011;23848;49.798;10.228;2023-11-21T08:46:45;5.75;;;2.90;;
26756;SDS011;23848;49.798;10.228;2023-11-21T08:49:26;5.15;;;3.08;;
26756;SDS011;23848;49.798;10.228;2023-11-21T08:52:02;3.38;;;2.10;;
26756;SDS011;23848;49.798;10.228;2023-11-21T08:54:44;5.03;;;2.15;;
26756;SDS011;23848;49.798;10.228;2023-11-21T08:57:23;4.00;;;2.33;;
26756;SDS011;23848;49.798;10.228;2023-11-21T08:59:56;4.55;;;2.60;;
26756;SDS011;23848;49.798;10.228;2023-11-21T09:02:30;6.53;;;4.22;;
26756;SDS011;23848;49.798;10.228;2023-11-21T09:05:03;9.80;;;5.18;;
26756;SDS011;23848;49.798;10.228;2023-11-21T09:07:44;6.72;;;4.00;;
26756;SDS011;23848;49.798;10.228;2023-11-21T09:10:15;6.28;;;3.85;;
26756;SDS011;23848;49.798;10.228;2023-11-21T09:13:04;6.50;;;3.85;;
26756;SDS011;23848;49.798;10.228;2023-11-21T09:15:38;8.27;;;5.45;;
26756;SDS011;23848;49.798;10.228;2023-11-21T09:18:09;6.45;;;4.40;;
26756;SDS011;23848;49.798;10.228;2023-11-21T09:20:50;7.78;;;4.45;;
26756;SDS011;23848;49.798;10.228;2023-11-21T09:23:47;9.02;;;5.68;;
26756;SDS011;23848;49.798;10.228;2023-11-21T09:26:25;6.10;;;3.28;;
26756;SDS011;23848;49.798;10.228;2023-11-21T09:28:55;6.95;;;4.38;;
26756;SDS011;23848;49.798;10.228;2023-11-21T09:31:39;5.90;;;4.00;;
26756;SDS011;23848;49.798;10.228;2023-11-21T09:34:14;5.30;;;3.30;;
26756;SDS011;23848;49.798;10.228;2023-11-21T09:36:52;6.38;;;3.20;;
26756;SDS011;23848;49.798;10.228;2023-11-21T09:39:24;5.82;;;3.70;;
26756;SDS011;23848;49.798;10.228;2023-11-21T09:42:10;6.07;;;3.28;;
26756;SDS011;23848;49.798;10.228;2023-11-21T09:44:43;5.85;;;3.60;;
26756;SDS011;23848;49.798;10.228;2023-11-21T09:47:20;5.00;;;3.55;;
26756;SDS011;23848;49.798;10.228;2023-11-21T09:49:52;5.57;;;3.47;;
26756;SDS011;23848;49.798;10.228;2023-11-21T09:52:37;6.85;;;3.65;;
26756;SDS011;23848;49.798;10.228;2023-11-21T09:55:11;4.70;;;2.92;;
26756;SDS011;23848;49.798;10.228;2023-11-21T09:57:45;6.35;;;3.53;;
26756;SDS011;23848;49.798;10.228;2023-11-21T10:00:32;4.43;;;2.67;;
26756;SDS011;23848;49.798;10.228;2023-11-21T10:03:03;4.22;;;2.60;;
26756;SDS011;23848;49.798;10.228;2023-11-21T10:05:42;5.38;;;2.70;;
26756;SDS011;23848;49.798;10.228;2023-11-21T10:08:51;5.55;;;2.58;;
26756;SDS011;23848;49.798;10.228;2023-11-21T10:14:06;5.72;;;2.80;;
26756;SDS011;23848;49.798;10.228;2023-11-21T10:19:23;5.25;;;2.80;;
26756;SDS011;23848;49.798;10.228;2023-11-21T10:21:57;3.85;;;2.08;;
26756;SDS011;23848;49.798;10.228;2023-11-21T10:24:27;3.70;;;2.20;;
26756;SDS011;23848;49.798;10.228;2023-11-21T10:27:09;3.92;;;2.40;;
26756;SDS011;23848;49.798;10.228;2023-11-21T10:29:47;4.00;;;2.25;;
26756;SDS011;23848;49.798;10.228;2023-11-21T10:32:16;4.25;;;2.42;;
26756;SDS011;23848;49.798;10.228;2023-11-21T10:37:38;3.80;;;2.10;;
26756;SDS011;23848;49.798;10.228;2023-11-21T10:40:08;3.13;;;1.80;;
26756;SDS011;23848;49.798;10.228;2023-11-21T10:42:41;4.90;;;2.28;;
26756;SDS011;23848;49.798;10.228;2023-11-21T10:45:12;3.17;;;1.90;;
26756;SDS011;23848;49.798;10.228;2023-11-21T10:47:43;4.10;;;2.10;;
26756;SDS011;23848;49.798;10.228;2023-11-21T10:50:14;9.60;;;4.07;;
26756;SDS011;23848;49.798;10.228;2023-11-21T10:52:50;5.53;;;2.75;;
26756;SDS011;23848;49.798;10.228;2023-11-21T10:55:20;3.15;;;2.13;;
26756;SDS011;23848;49.798;10.228;2023-11-21T10:57:56;4.65;;;2.70;;
26756;SDS011;23848;49.798;10.228;2023-11-21T11:00:31;4.22;;;2.20;;
26756;SDS011;23848;49.798;10.228;2023-11-21T11:03:01;3.40;;;2.20;;
26756;SDS011;23848;49.798;10.228;2023-11-21T11:05:31;4.30;;;2.50;;
26756;SDS011;23848;49.798;10.228;2023-11-21T11:08:07;4.03;;;2.38;;
26756;SDS011;23848;49.798;10.228;2023-11-21T11:10:37;6.07;;;3.22;;
26756;SDS011;23848;49.798;10.228;2023-11-21T11:13:07;4.05;;;2.40;;
26756;SDS011;23848;49.798;10.228;2023-11-21T11:15:48;4.05;;;2.50;;
26756;SDS011;23848;49.798;10.228;2023-11-21T11:18:25;4.07;;;2.00;;
26756;SDS011;23848;49.798;10.228;2023-11-21T11:21:00;5.13;;;3.35;;
26756;SDS011;23848;49.798;10.228;2023-11-21T11:23:40;6.47;;;2.90;;
26756;SDS011;23848;49.798;10.228;2023-11-21T11:26:23;4.70;;;2.20;;
26756;SDS011;23848;49.798;10.228;2023-11-21T11:29:02;4.43;;;2.45;;
26756;SDS011;23848;49.798;10.228;2023-11-21T11:31:48;5.38;;;3.03;;
26756;SDS011;23848;49.798;10.228;2023-11-21T11:34:35;4.88;;;2.60;;
26756;SDS011;23848;49.798;10.228;2023-11-21T11:37:19;4.95;;;2.58;;
26756;SDS011;23848;49.798;10.228;2023-11-21T11:39:51;4.97;;;2.40;;
26756;SDS011;23848;49.798;10.228;2023-11-21T11:42:21;5.28;;;3.03;;
26756;SDS011;23848;49.798;10.228;2023-11-21T11:44:51;3.17;;;1.85;;
26756;SDS011;23848;49.798;10.228;2023-11-21T11:47:21;3.13;;;1.83;;
26756;SDS011;23848;49.798;10.228;2023-11-21T11:50:43;3.95;;;1.85;;
26756;SDS011;23848;49.798;10.228;2023-11-21T11:53:18;2.30;;;1.55;;
26756;SDS011;23848;49.798;10.228;2023-11-21T11:56:34;2.97;;;1.65;;
26756;SDS011;23848;49.798;10.228;2023-11-21T12:06:39;3.03;;;1.67;;
26756;SDS011;23848;49.798;10.228;2023-11-21T12:09:55;3.55;;;1.75;;
26756;SDS011;23848;49.798;10.228;2023-11-21T12:12:58;3.42;;;1.95;;
26756;SDS011;23848;49.798;10.228;2023-11-21T12:16:05;2.85;;;1.50;;
26756;SDS011;23848;49.798;10.228;2023-11-21T12:19:17;4.95;;;1.75;;
26756;SDS011;23848;49.798;10.228;2023-11-21T12:29:16;5.65;;;1.85;;
26756;SDS011;23848;49.798;10.228;2023-11-21T12:59:02;5.47;;;3.10;;
26756;SDS011;23848;49.798;10.228;2023-11-21T13:02:01;5.97;;;3.50;;
26756;SDS011;23848;49.798;10.228;2023-11-21T13:05:03;6.28;;;3.58;;
26756;SDS011;23848;49.798;10.228;2023-11-21T13:07:53;4.47;;;3.03;;
26756;SDS011;23848;49.798;10.228;2023-11-21T13:10:35;6.57;;;3.08;;
26756;SDS011;23848;49.798;10.228;2023-11-21T13:13:35;10.07;;;4.80;;
26756;SDS011;23848;49.798;10.228;2023-11-21T13:16:22;6.35;;;3.05;;
26756;SDS011;23848;49.798;10.228;2023-11-21T13:19:21;17.08;;;8.65;;
26756;SDS011;23848;49.798;10.228;2023-11-21T13:28:29;8.77;;;5.80;;
26756;SDS011;23848;49.798;10.228;2023-11-21T13:34:41;3.08;;;1.60;;
26756;SDS011;23848;49.798;10.228;2023-11-21T13:37:51;3.67;;;1.73;;
26756;SDS011;23848;49.798;10.228;2023-11-21T13:44:06;3.83;;;2.15;;
26756;SDS011;23848;49.798;10.228;2023-11-21T14:03:11;2.25;;;1.17;;
26756;SDS011;23848;49.798;10.228;2023-11-21T14:06:06;3.13;;;1.42;;
26756;SDS011;23848;49.798;10.228;2023-11-21T14:11:41;2.83;;;1.45;;
26756;SDS011;23848;49.798;10.228;2023-11-21T14:14:48;4.20;;;1.90;;
26756;SDS011;23848;49.798;10.228;2023-11-21T14:17:35;2.88;;;1.73;;
26756;SDS011;23848;49.798;10.228;2023-11-21T14:20:12;3.67;;;1.67;;
26756;SDS011;23848;49.798;10.228;2023-11-21T14:22:56;2.70;;;1.40;;
26756;SDS011;23848;49.798;10.228;2023-11-21T14:29:17;3.03;;;1.63;;
26756;SDS011;23848;49.798;10.228;2023-11-21T14:31:47;3.75;;;1.75;;
26756;SDS011;23848;49.798;10.228;2023-11-21T14:34:17;5.05;;;2.08;;
26756;SDS011;23848;49.798;10.228;2023-11-21T14:36:53;2.90;;;1.50;;
26756;SDS011;23848;49.798;10.228;2023-11-21T14:39:30;12.15;;;5.10;;
26756;SDS011;23848;49.798;10.228;2023-11-21T14:42:04;3.42;;;1.90;;
26756;SDS011;23848;49.798;10.228;2023-11-21T14:44:34;3.30;;;1.83;;
26756;SDS011;23848;49.798;10.228;2023-11-21T14:47:09;3.28;;;2.30;;
26756;SDS011;23848;49.798;10.228;2023-11-21T14:50:00;4.18;;;2.38;;
26756;SDS011;23848;49.798;10.228;2023-11-21T14:52:54;6.03;;;3.95;;
26756;SDS011;23848;49.798;10.228;2023-11-21T14:55:26;8.02;;;4.38;;
26756;SDS011;23848;49.798;10.228;2023-11-21T14:58:10;5.65;;;3.80;;
26756;SDS011;23848;49.798;10.228;2023-11-21T15:00:42;4.60;;;2.63;;
26756;SDS011;23848;49.798;10.228;2023-11-21T15:03:12;6.35;;;3.42;;
26756;SDS011;23848;49.798;10.228;2023-11-21T15:06:04;12.40;;;8.00;;
26756;SDS011;23848;49.798;10.228;2023-11-21T15:08:50;8.40;;;6.95;;
26756;SDS011;23848;49.798;10.228;2023-11-21T15:11:35;6.45;;;5.30;;
26756;SDS011;23848;49.798;10.228;2023-11-21T15:14:05;7.65;;;4.55;;
26756;SDS011;23848;49.798;10.228;2023-11-21T15:19:49;6.97;;;3.78;;
26756;SDS011;23848;49.798;10.228;2023-11-21T15:22:31;4.20;;;2.42;;
26756;SDS011;23848;49.798;10.228;2023-11-21T15:25:08;4.22;;;2.90;;
26756;SDS011;23848;49.798;10.228;2023-11-21T15:27:42;6.68;;;2.75;;
26756;SDS011;23848;49.798;10.228;2023-11-21T15:30:14;3.60;;;2.60;;
26756;SDS011;23848;49.798;10.228;2023-11-21T15:32:54;5.82;;;2.03;;
26756;SDS011;23848;49.798;10.228;2023-11-21T15:35:22;4.18;;;2.55;;
26756;SDS011;23848;49.798;10.228;2023-11-21T15:37:54;4.03;;;2.50;;
26756;SDS011;23848;49.798;10.228;2023-11-21T15:40:39;3.88;;;2.42;;
26756;SDS011;23848;49.798;10.228;2023-11-21T15:43:12;4.93;;;3.03;;
26756;SDS011;23848;49.798;10.228;2023-11-21T15:45:46;3.95;;;2.85;;
26756;SDS011;23848;49.798;10.228;2023-11-21T15:48:19;4.53;;;2.70;;
26756;SDS011;23848;49.798;10.228;2023-11-21T15:51:03;4.60;;;2.58;;
26756;SDS011;23848;49.798;10.228;2023-11-21T15:53:35;6.22;;;4.00;;
26756;SDS011;23848;49.798;10.228;2023-11-21T15:56:09;5.85;;;3.88;;
26756;SDS011;23848;49.798;10.228;2023-11-21T15:58:47;4.00;;;2.70;;
26756;SDS011;23848;49.798;10.228;2023-11-21T16:01:20;4.38;;;3.17;;
26756;SDS011;23848;49.798;10.228;2023-11-21T16:03:59;5.68;;;3.15;;
26756;SDS011;23848;49.798;10.228;2023-11-21T16:06:35;5.55;;;2.80;;
26756;SDS011;23848;49.798;10.228;2023-11-21T16:09:07;4.53;;;2.80;;
26756;SDS011;23848;49.798;10.228;2023-11-21T16:11:50;5.65;;;2.65;;
26756;SDS011;23848;49.798;10.228;2023-11-21T16:14:24;7.45;;;3.60;;
26756;SDS011;23848;49.798;10.228;2023-11-21T16:16:56;4.22;;;2.70;;
26756;SDS011;23848;49.798;10.228;2023-11-21T16:19:24;8.52;;;3.25;;
26756;SDS011;23848;49.798;10.228;2023-11-21T16:21:57;8.30;;;4.38;;
26756;SDS011;23848;49.798;10.228;2023-11-21T16:24:26;4.32;;;2.78;;
26756;SDS011;23848;49.798;10.228;2023-11-21T16:26:58;7.03;;;3.65;;
26756;SDS011;23848;49.798;10.228;2023-11-21T16:29:32;5.70;;;3.08;;
26756;SDS011;23848;49.798;10.228;2023-11-21T16:32:08;5.50;;;3.35;;
26756;SDS011;23848;49.798;10.228;2023-11-21T16:34:38;7.97;;;3.67;;
26756;SDS011;23848;49.798;10.228;2023-11-21T16:37:09;4.57;;;2.67;;
26756;SDS011;23848;49.798;10.228;2023-11-21T16:39:43;5.43;;;3.00;;
26756;SDS011;23848;49.798;10.228;2023-11-21T16:42:15;5.35;;;2.92;;
26756;SDS011;23848;49.798;10.228;2023-11-21T16:44:48;5.03;;;2.80;;
26756;SDS011;23848;49.798;10.228;2023-11-21T16:47:18;3.65;;;2.28;;